< < Back
Terminal Aerodrome Forecast


Current Version              Previous Versions:   1  2  3  4  5  6  7  8  9  

Terminal Aerodrome Forecast

738
FTUS44 KOHX 240000 AAA
TAFCSV
TAF AMD
KCSV 240008Z 2400/2424 VRB03KT P6SM SCT250
     FM240200 23003KT 5SM BR VCTS BKN030CB
     FM240600 24005KT 6SM BR OVC025
     FM240900 00000KT 2SM BR BKN015
     FM241700 32006KT P6SM BKN050=

Latest METAR

761
SAUS70 KWBC 240400 RRC
MTRCSV
METAR KCSV 240353Z AUTO 00000KT 10SM FEW075 FEW090 BKN110 23/21 A3007
RMK AO2 LTG DSNT W RAB34E52 SLP160 P0000 T02280206


USA.gov is the U.S. government's official web portal to all federal, state and local government web resources and services.